Koninklijk Nederlands Meteorologisch Instituut; Ministerie van Verkeer en Waterstaat

 
Weer
Nederlandse vliegveldverwachtingen (TAF)
ZCZC
FT230500 EHAM     AMSTERDAM/SCHIPHOL   NLD   -3 m.
TAF EHAM 230414Z 2306/2412 05010KT CAVOK
    TEMPO 2308/2318 07016KT=

ZCZC
FT230500 EHGG     GRONINGEN/EELDE   NLD   5 m.
TAF EHGG 230437Z 2306/2412 05008KT CAVOK
    BECMG 2308/2310 05013KT
    BECMG 2318/2320 05007KT
    BECMG 2407/2409 05012KT=

ZCZC
FT230500 EHRD     ROTTERDAM/THE HAGUE AIRPORT   NLD   -5 m.
TAF EHRD 230413Z 2306/2412 05010KT CAVOK
    TEMPO 2308/2317 07015KT=

ZCZC
FT230500 EHBK     MAASTRICHT/MAASTRICHT-AACHEN   NLD   114 m.
TAF EHBK 230437Z 2306/2412 05007KT CAVOK
    BECMG 2309/2311 05012KT
    BECMG 2318/2320 04006KT=

ZCZC
FT230500 EHEH     EINDHOVEN/EINDHOVEN   NLD   22 m.
TAF EHEH 230531Z 2306/2412 04008KT CAVOK
    BECMG 2311/2313 05012G22KT=

ZCZC
FC230800 EHWO     WOENSDRECHT/WOENSDRECHT   NLD   19 m.
TAF EHWO 230836Z 2309/2321 05011KT CAVOK=

ZCZC
FC230800 EHVK     VOLKEL/VOLKEL   NLD   21 m.
TAF EHVK 230835Z 2309/2321 05011KT CAVOK=

ZCZC
FC230800 EHLW     LEEUWARDEN/LEEUWARDEN   NLD   1 m.
TAF EHLW 230837Z 2309/2321 06013KT CAVOK
    PROB40 TEMPO 2310/2317 06015G25KT=

ZCZC
FC230800 EHGR     GILZE-RIJEN/GILZE-RIJEN   NLD   14 m.
TAF EHGR 230835Z 2309/2321 05010KT CAVOK=

ZCZC
FC230900 EHKD     DE KOOY/DE KOOY   NLD   1 m.
TAF EHKD 230838Z 2309/2321 06013KT CAVOK
    PROB40 TEMPO 2310/2317 06015G25KT=